sensor_id;sensor_type;location;lat;lon;timestamp;P1;durP1;ratioP1;P2;durP2;ratioP2
43650;SDS011;29247;50.944;5.382;2023-05-07T00:00:45;3.65;;;2.90;;
43650;SDS011;29247;50.944;5.382;2023-05-07T00:03:11;5.05;;;2.60;;
43650;SDS011;29247;50.944;5.382;2023-05-07T00:05:38;2.95;;;2.50;;
43650;SDS011;29247;50.944;5.382;2023-05-07T00:08:05;3.00;;;2.50;;
43650;SDS011;29247;50.944;5.382;2023-05-07T00:10:31;5.07;;;2.97;;
43650;SDS011;29247;50.944;5.382;2023-05-07T00:12:57;4.13;;;3.05;;
43650;SDS011;29247;50.944;5.382;2023-05-07T00:15:28;4.75;;;2.95;;
43650;SDS011;29247;50.944;5.382;2023-05-07T00:20:25;4.95;;;2.50;;
43650;SDS011;29247;50.944;5.382;2023-05-07T00:22:51;3.42;;;2.78;;
43650;SDS011;29247;50.944;5.382;2023-05-07T00:25:20;5.35;;;3.20;;
43650;SDS011;29247;50.944;5.382;2023-05-07T00:27:46;5.20;;;2.55;;
43650;SDS011;29247;50.944;5.382;2023-05-07T00:30:12;2.80;;;2.50;;
43650;SDS011;29247;50.944;5.382;2023-05-07T00:32:38;3.17;;;2.88;;
43650;SDS011;29247;50.944;5.382;2023-05-07T00:35:04;4.57;;;2.95;;
43650;SDS011;29247;50.944;5.382;2023-05-07T00:37:33;6.13;;;3.05;;
43650;SDS011;29247;50.944;5.382;2023-05-07T00:39:59;4.13;;;3.15;;
43650;SDS011;29247;50.944;5.382;2023-05-07T00:42:32;3.25;;;2.67;;
43650;SDS011;29247;50.944;5.382;2023-05-07T00:44:58;3.58;;;3.03;;
43650;SDS011;29247;50.944;5.382;2023-05-07T00:47:29;5.07;;;2.83;;
43650;SDS011;29247;50.944;5.382;2023-05-07T00:49:55;6.78;;;3.17;;
43650;SDS011;29247;50.944;5.382;2023-05-07T00:52:22;2.80;;;2.60;;
43650;SDS011;29247;50.944;5.382;2023-05-07T00:54:51;7.20;;;3.05;;
43650;SDS011;29247;50.944;5.382;2023-05-07T00:57:17;7.82;;;3.63;;
43650;SDS011;29247;50.944;5.382;2023-05-07T00:59:42;4.55;;;2.92;;
43650;SDS011;29247;50.944;5.382;2023-05-07T01:02:12;3.60;;;3.30;;
43650;SDS011;29247;50.944;5.382;2023-05-07T01:04:40;4.38;;;2.55;;
43650;SDS011;29247;50.944;5.382;2023-05-07T01:07:06;3.92;;;3.50;;
43650;SDS011;29247;50.944;5.382;2023-05-07T01:09:34;3.10;;;2.72;;
43650;SDS011;29247;50.944;5.382;2023-05-07T01:12:03;5.68;;;2.50;;
43650;SDS011;29247;50.944;5.382;2023-05-07T01:14:35;6.05;;;3.30;;
43650;SDS011;29247;50.944;5.382;2023-05-07T01:17:01;2.58;;;2.33;;
43650;SDS011;29247;50.944;5.382;2023-05-07T01:19:27;3.88;;;2.95;;
43650;SDS011;29247;50.944;5.382;2023-05-07T01:21:55;4.07;;;3.53;;
43650;SDS011;29247;50.944;5.382;2023-05-07T01:24:27;5.85;;;3.80;;
43650;SDS011;29247;50.944;5.382;2023-05-07T01:26:53;5.38;;;3.95;;
43650;SDS011;29247;50.944;5.382;2023-05-07T01:29:21;4.90;;;3.25;;
43650;SDS011;29247;50.944;5.382;2023-05-07T01:31:49;3.80;;;3.40;;
43650;SDS011;29247;50.944;5.382;2023-05-07T01:34:16;4.07;;;3.67;;
43650;SDS011;29247;50.944;5.382;2023-05-07T01:36:46;5.23;;;3.93;;
43650;SDS011;29247;50.944;5.382;2023-05-07T01:39:15;5.03;;;4.13;;
43650;SDS011;29247;50.944;5.382;2023-05-07T01:41:42;6.40;;;3.85;;
43650;SDS011;29247;50.944;5.382;2023-05-07T01:44:08;5.60;;;4.75;;
43650;SDS011;29247;50.944;5.382;2023-05-07T01:46:37;7.20;;;4.25;;
43650;SDS011;29247;50.944;5.382;2023-05-07T01:49:03;7.50;;;3.80;;
43650;SDS011;29247;50.944;5.382;2023-05-07T01:51:31;5.38;;;3.60;;
43650;SDS011;29247;50.944;5.382;2023-05-07T01:54:00;5.97;;;3.78;;
43650;SDS011;29247;50.944;5.382;2023-05-07T01:56:26;3.85;;;2.90;;
43650;SDS011;29247;50.944;5.382;2023-05-07T01:58:52;4.97;;;3.10;;
43650;SDS011;29247;50.944;5.382;2023-05-07T02:01:20;4.03;;;3.50;;
43650;SDS011;29247;50.944;5.382;2023-05-07T02:03:46;8.50;;;3.10;;
43650;SDS011;29247;50.944;5.382;2023-05-07T02:06:17;4.25;;;3.65;;
43650;SDS011;29247;50.944;5.382;2023-05-07T02:08:42;5.07;;;3.25;;
43650;SDS011;29247;50.944;5.382;2023-05-07T02:11:08;6.30;;;3.65;;
43650;SDS011;29247;50.944;5.382;2023-05-07T02:13:34;8.52;;;3.85;;
43650;SDS011;29247;50.944;5.382;2023-05-07T02:16:03;3.50;;;3.17;;
43650;SDS011;29247;50.944;5.382;2023-05-07T02:18:33;3.80;;;3.20;;
43650;SDS011;29247;50.944;5.382;2023-05-07T02:20:58;6.20;;;3.40;;
43650;SDS011;29247;50.944;5.382;2023-05-07T02:23:24;4.30;;;3.53;;
43650;SDS011;29247;50.944;5.382;2023-05-07T02:25:52;6.57;;;3.20;;
43650;SDS011;29247;50.944;5.382;2023-05-07T02:28:18;3.33;;;2.92;;
43650;SDS011;29247;50.944;5.382;2023-05-07T02:30:43;4.68;;;3.55;;
43650;SDS011;29247;50.944;5.382;2023-05-07T02:33:09;3.90;;;3.35;;
43650;SDS011;29247;50.944;5.382;2023-05-07T02:35:38;3.97;;;3.50;;
43650;SDS011;29247;50.944;5.382;2023-05-07T02:38:07;8.63;;;3.30;;
43650;SDS011;29247;50.944;5.382;2023-05-07T02:40:35;5.55;;;4.00;;
43650;SDS011;29247;50.944;5.382;2023-05-07T02:43:04;8.10;;;3.83;;
43650;SDS011;29247;50.944;5.382;2023-05-07T02:45:32;5.93;;;4.18;;
43650;SDS011;29247;50.944;5.382;2023-05-07T02:47:58;6.20;;;3.85;;
43650;SDS011;29247;50.944;5.382;2023-05-07T02:50:24;7.65;;;4.32;;
43650;SDS011;29247;50.944;5.382;2023-05-07T02:52:51;5.28;;;4.55;;
43650;SDS011;29247;50.944;5.382;2023-05-07T02:55:17;6.15;;;4.38;;
43650;SDS011;29247;50.944;5.382;2023-05-07T02:57:43;5.47;;;3.92;;
43650;SDS011;29247;50.944;5.382;2023-05-07T03:00:10;4.85;;;4.32;;
43650;SDS011;29247;50.944;5.382;2023-05-07T03:02:43;6.68;;;4.40;;
43650;SDS011;29247;50.944;5.382;2023-05-07T03:05:11;5.47;;;4.40;;
43650;SDS011;29247;50.944;5.382;2023-05-07T03:07:37;4.10;;;3.53;;
43650;SDS011;29247;50.944;5.382;2023-05-07T03:10:04;5.60;;;4.22;;
43650;SDS011;29247;50.944;5.382;2023-05-07T03:12:30;6.07;;;4.22;;
43650;SDS011;29247;50.944;5.382;2023-05-07T03:14:58;4.38;;;3.88;;
43650;SDS011;29247;50.944;5.382;2023-05-07T03:17:24;5.47;;;4.18;;
43650;SDS011;29247;50.944;5.382;2023-05-07T03:19:50;5.07;;;4.13;;
43650;SDS011;29247;50.944;5.382;2023-05-07T03:22:16;7.85;;;4.40;;
43650;SDS011;29247;50.944;5.382;2023-05-07T03:24:41;4.95;;;4.10;;
43650;SDS011;29247;50.944;5.382;2023-05-07T03:27:07;7.10;;;4.18;;
43650;SDS011;29247;50.944;5.382;2023-05-07T03:29:33;5.95;;;4.25;;
43650;SDS011;29247;50.944;5.382;2023-05-07T03:32:01;4.88;;;4.35;;
43650;SDS011;29247;50.944;5.382;2023-05-07T03:34:29;6.13;;;4.55;;
43650;SDS011;29247;50.944;5.382;2023-05-07T03:36:57;5.60;;;4.22;;
43650;SDS011;29247;50.944;5.382;2023-05-07T03:39:23;5.82;;;4.45;;
43650;SDS011;29247;50.944;5.382;2023-05-07T03:41:52;4.57;;;4.07;;
43650;SDS011;29247;50.944;5.382;2023-05-07T03:44:27;4.20;;;3.78;;
43650;SDS011;29247;50.944;5.382;2023-05-07T03:46:53;5.18;;;4.20;;
43650;SDS011;29247;50.944;5.382;2023-05-07T03:49:19;6.55;;;4.55;;
43650;SDS011;29247;50.944;5.382;2023-05-07T03:51:44;7.45;;;4.18;;
43650;SDS011;29247;50.944;5.382;2023-05-07T03:54:13;5.50;;;4.50;;
43650;SDS011;29247;50.944;5.382;2023-05-07T03:56:38;6.55;;;4.03;;
43650;SDS011;29247;50.944;5.382;2023-05-07T03:59:05;4.63;;;4.20;;
43650;SDS011;29247;50.944;5.382;2023-05-07T04:01:30;6.78;;;5.10;;
43650;SDS011;29247;50.944;5.382;2023-05-07T04:06:26;4.53;;;4.13;;
43650;SDS011;29247;50.944;5.382;2023-05-07T04:08:55;8.65;;;4.80;;
43650;SDS011;29247;50.944;5.382;2023-05-07T04:11:24;4.72;;;4.25;;
43650;SDS011;29247;50.944;5.382;2023-05-07T04:13:50;5.65;;;4.68;;
43650;SDS011;29247;50.944;5.382;2023-05-07T04:16:16;5.78;;;4.60;;
43650;SDS011;29247;50.944;5.382;2023-05-07T04:18:47;6.53;;;4.63;;
43650;SDS011;29247;50.944;5.382;2023-05-07T04:21:18;7.50;;;4.88;;
43650;SDS011;29247;50.944;5.382;2023-05-07T04:23:48;5.32;;;4.68;;
43650;SDS011;29247;50.944;5.382;2023-05-07T04:26:16;5.47;;;4.97;;
43650;SDS011;29247;50.944;5.382;2023-05-07T04:28:46;7.85;;;4.13;;
43650;SDS011;29247;50.944;5.382;2023-05-07T04:31:11;4.85;;;4.00;;
43650;SDS011;29247;50.944;5.382;2023-05-07T04:33:42;5.30;;;3.80;;
43650;SDS011;29247;50.944;5.382;2023-05-07T04:36:10;8.27;;;4.10;;
43650;SDS011;29247;50.944;5.382;2023-05-07T04:38:39;6.50;;;4.50;;
43650;SDS011;29247;50.944;5.382;2023-05-07T04:41:05;5.97;;;4.47;;
43650;SDS011;29247;50.944;5.382;2023-05-07T04:43:31;8.18;;;4.70;;
43650;SDS011;29247;50.944;5.382;2023-05-07T04:45:57;5.53;;;4.35;;
43650;SDS011;29247;50.944;5.382;2023-05-07T04:48:26;4.68;;;4.03;;
43650;SDS011;29247;50.944;5.382;2023-05-07T04:50:52;4.78;;;4.13;;
43650;SDS011;29247;50.944;5.382;2023-05-07T04:53:20;5.05;;;3.72;;
43650;SDS011;29247;50.944;5.382;2023-05-07T04:55:46;5.25;;;4.72;;
43650;SDS011;29247;50.944;5.382;2023-05-07T04:58:12;6.47;;;4.50;;
43650;SDS011;29247;50.944;5.382;2023-05-07T05:00:40;6.15;;;4.40;;
43650;SDS011;29247;50.944;5.382;2023-05-07T05:03:07;7.68;;;4.07;;
43650;SDS011;29247;50.944;5.382;2023-05-07T05:05:33;9.27;;;4.72;;
43650;SDS011;29247;50.944;5.382;2023-05-07T05:07:59;5.15;;;4.53;;
43650;SDS011;29247;50.944;5.382;2023-05-07T05:10:25;4.45;;;3.67;;
43650;SDS011;29247;50.944;5.382;2023-05-07T05:12:50;6.78;;;4.80;;
43650;SDS011;29247;50.944;5.382;2023-05-07T05:15:16;5.70;;;4.20;;
43650;SDS011;29247;50.944;5.382;2023-05-07T05:17:42;6.40;;;4.38;;
43650;SDS011;29247;50.944;5.382;2023-05-07T05:23:13;7.40;;;5.15;;
43650;SDS011;29247;50.944;5.382;2023-05-07T05:25:42;8.52;;;5.38;;
43650;SDS011;29247;50.944;5.382;2023-05-07T05:28:07;15.23;;;9.98;;
43650;SDS011;29247;50.944;5.382;2023-05-07T05:30:35;7.72;;;6.55;;
43650;SDS011;29247;50.944;5.382;2023-05-07T05:33:01;11.45;;;6.45;;
43650;SDS011;29247;50.944;5.382;2023-05-07T05:35:27;13.32;;;8.70;;
43650;SDS011;29247;50.944;5.382;2023-05-07T05:37:55;7.75;;;6.28;;
43650;SDS011;29247;50.944;5.382;2023-05-07T05:40:20;8.10;;;5.85;;
43650;SDS011;29247;50.944;5.382;2023-05-07T05:42:46;9.73;;;6.28;;
43650;SDS011;29247;50.944;5.382;2023-05-07T05:45:12;7.82;;;6.05;;
43650;SDS011;29247;50.944;5.382;2023-05-07T05:47:37;8.15;;;6.40;;
43650;SDS011;29247;50.944;5.382;2023-05-07T05:50:05;11.05;;;6.80;;
43650;SDS011;29247;50.944;5.382;2023-05-07T05:52:31;9.32;;;7.32;;
43650;SDS011;29247;50.944;5.382;2023-05-07T05:54:57;8.07;;;5.60;;
43650;SDS011;29247;50.944;5.382;2023-05-07T05:57:23;7.15;;;5.68;;
43650;SDS011;29247;50.944;5.382;2023-05-07T05:59:48;7.25;;;5.65;;
43650;SDS011;29247;50.944;5.382;2023-05-07T06:02:14;9.70;;;5.50;;
43650;SDS011;29247;50.944;5.382;2023-05-07T06:04:40;6.47;;;5.82;;
43650;SDS011;29247;50.944;5.382;2023-05-07T06:07:08;8.45;;;5.88;;
43650;SDS011;29247;50.944;5.382;2023-05-07T06:09:34;6.53;;;5.25;;
43650;SDS011;29247;50.944;5.382;2023-05-07T06:12:00;6.75;;;5.20;;
43650;SDS011;29247;50.944;5.382;2023-05-07T06:14:28;9.02;;;5.82;;
43650;SDS011;29247;50.944;5.382;2023-05-07T06:16:53;6.03;;;5.47;;
43650;SDS011;29247;50.944;5.382;2023-05-07T06:19:22;7.10;;;5.63;;
43650;SDS011;29247;50.944;5.382;2023-05-07T06:21:51;6.80;;;5.57;;
43650;SDS011;29247;50.944;5.382;2023-05-07T06:24:17;6.88;;;5.78;;
43650;SDS011;29247;50.944;5.382;2023-05-07T06:26:42;8.02;;;5.70;;
43650;SDS011;29247;50.944;5.382;2023-05-07T06:29:08;7.63;;;6.00;;
43650;SDS011;29247;50.944;5.382;2023-05-07T06:31:34;7.18;;;5.10;;
43650;SDS011;29247;50.944;5.382;2023-05-07T06:34:00;7.72;;;5.95;;
43650;SDS011;29247;50.944;5.382;2023-05-07T06:36:28;6.53;;;4.90;;
43650;SDS011;29247;50.944;5.382;2023-05-07T06:38:56;5.97;;;4.90;;
43650;SDS011;29247;50.944;5.382;2023-05-07T06:41:21;7.95;;;5.28;;
43650;SDS011;29247;50.944;5.382;2023-05-07T06:43:50;5.35;;;4.68;;
43650;SDS011;29247;50.944;5.382;2023-05-07T06:46:20;5.50;;;5.00;;
43650;SDS011;29247;50.944;5.382;2023-05-07T06:48:46;6.43;;;5.10;;
43650;SDS011;29247;50.944;5.382;2023-05-07T06:51:14;8.63;;;5.35;;
43650;SDS011;29247;50.944;5.382;2023-05-07T06:53:40;6.30;;;4.82;;
43650;SDS011;29247;50.944;5.382;2023-05-07T06:56:10;5.32;;;4.70;;
43650;SDS011;29247;50.944;5.382;2023-05-07T06:58:37;5.72;;;4.40;;
43650;SDS011;29247;50.944;5.382;2023-05-07T07:01:07;4.50;;;3.95;;
43650;SDS011;29247;50.944;5.382;2023-05-07T07:03:33;7.93;;;4.32;;
43650;SDS011;29247;50.944;5.382;2023-05-07T07:05:59;4.75;;;4.28;;
43650;SDS011;29247;50.944;5.382;2023-05-07T07:08:29;6.80;;;4.05;;
43650;SDS011;29247;50.944;5.382;2023-05-07T07:10:57;5.00;;;4.20;;
43650;SDS011;29247;50.944;5.382;2023-05-07T07:13:23;5.18;;;4.15;;
43650;SDS011;29247;50.944;5.382;2023-05-07T07:15:49;4.82;;;4.03;;
43650;SDS011;29247;50.944;5.382;2023-05-07T07:18:18;4.20;;;3.80;;
43650;SDS011;29247;50.944;5.382;2023-05-07T07:20:46;5.63;;;3.55;;
43650;SDS011;29247;50.944;5.382;2023-05-07T07:23:14;7.72;;;3.80;;
43650;SDS011;29247;50.944;5.382;2023-05-07T07:25:42;4.85;;;3.72;;
43650;SDS011;29247;50.944;5.382;2023-05-07T07:28:08;7.55;;;3.75;;
43650;SDS011;29247;50.944;5.382;2023-05-07T07:30:36;5.97;;;3.17;;
43650;SDS011;29247;50.944;5.382;2023-05-07T07:33:02;4.55;;;3.70;;
43650;SDS011;29247;50.944;5.382;2023-05-07T07:35:31;5.00;;;3.53;;
43650;SDS011;29247;50.944;5.382;2023-05-07T07:38:00;4.75;;;3.95;;
43650;SDS011;29247;50.944;5.382;2023-05-07T07:40:26;6.35;;;4.15;;
43650;SDS011;29247;50.944;5.382;2023-05-07T07:42:56;4.32;;;3.22;;
43650;SDS011;29247;50.944;5.382;2023-05-07T07:45:22;3.95;;;3.15;;
43650;SDS011;29247;50.944;5.382;2023-05-07T07:47:47;5.18;;;3.83;;
43650;SDS011;29247;50.944;5.382;2023-05-07T07:50:16;3.88;;;3.25;;
43650;SDS011;29247;50.944;5.382;2023-05-07T07:52:43;7.72;;;3.55;;
43650;SDS011;29247;50.944;5.382;2023-05-07T07:55:09;7.88;;;3.58;;
43650;SDS011;29247;50.944;5.382;2023-05-07T07:57:35;7.72;;;3.45;;
43650;SDS011;29247;50.944;5.382;2023-05-07T08:00:01;4.00;;;3.60;;
43650;SDS011;29247;50.944;5.382;2023-05-07T08:02:28;6.15;;;3.42;;
43650;SDS011;29247;50.944;5.382;2023-05-07T08:04:53;6.07;;;3.92;;
43650;SDS011;29247;50.944;5.382;2023-05-07T08:07:19;4.75;;;3.72;;
43650;SDS011;29247;50.944;5.382;2023-05-07T08:09:50;5.53;;;3.78;;
43650;SDS011;29247;50.944;5.382;2023-05-07T08:12:17;11.07;;;3.28;;
43650;SDS011;29247;50.944;5.382;2023-05-07T08:14:44;3.17;;;2.97;;
43650;SDS011;29247;50.944;5.382;2023-05-07T08:17:10;6.82;;;2.80;;
43650;SDS011;29247;50.944;5.382;2023-05-07T08:19:36;3.65;;;2.92;;
43650;SDS011;29247;50.944;5.382;2023-05-07T08:22:03;5.13;;;3.03;;
43650;SDS011;29247;50.944;5.382;2023-05-07T08:24:31;5.35;;;2.88;;
43650;SDS011;29247;50.944;5.382;2023-05-07T08:26:57;4.97;;;2.63;;
43650;SDS011;29247;50.944;5.382;2023-05-07T08:29:23;4.55;;;2.90;;
43650;SDS011;29247;50.944;5.382;2023-05-07T08:31:49;5.00;;;3.38;;
43650;SDS011;29247;50.944;5.382;2023-05-07T08:34:15;5.75;;;3.38;;
43650;SDS011;29247;50.944;5.382;2023-05-07T08:36:41;6.03;;;3.38;;
43650;SDS011;29247;50.944;5.382;2023-05-07T08:39:14;4.38;;;3.63;;
43650;SDS011;29247;50.944;5.382;2023-05-07T08:41:43;3.70;;;3.30;;
43650;SDS011;29247;50.944;5.382;2023-05-07T08:44:11;5.85;;;3.40;;
43650;SDS011;29247;50.944;5.382;2023-05-07T08:46:39;4.75;;;3.28;;
43650;SDS011;29247;50.944;5.382;2023-05-07T08:49:06;5.03;;;3.25;;
43650;SDS011;29247;50.944;5.382;2023-05-07T08:51:35;4.38;;;2.95;;
43650;SDS011;29247;50.944;5.382;2023-05-07T08:54:06;3.92;;;2.90;;
43650;SDS011;29247;50.944;5.382;2023-05-07T08:56:35;4.93;;;3.30;;
43650;SDS011;29247;50.944;5.382;2023-05-07T08:59:00;4.00;;;2.85;;
43650;SDS011;29247;50.944;5.382;2023-05-07T09:01:29;4.32;;;3.03;;
43650;SDS011;29247;50.944;5.382;2023-05-07T09:03:54;3.53;;;2.70;;
43650;SDS011;29247;50.944;5.382;2023-05-07T09:06:20;4.32;;;3.45;;
43650;SDS011;29247;50.944;5.382;2023-05-07T09:08:50;4.88;;;3.42;;
43650;SDS011;29247;50.944;5.382;2023-05-07T09:11:19;5.65;;;3.72;;
43650;SDS011;29247;50.944;5.382;2023-05-07T09:13:52;5.97;;;3.75;;
43650;SDS011;29247;50.944;5.382;2023-05-07T09:16:21;7.90;;;4.13;;
43650;SDS011;29247;50.944;5.382;2023-05-07T09:18:52;8.10;;;4.10;;
43650;SDS011;29247;50.944;5.382;2023-05-07T09:21:24;9.35;;;3.70;;
43650;SDS011;29247;50.944;5.382;2023-05-07T09:23:53;4.63;;;3.78;;
43650;SDS011;29247;50.944;5.382;2023-05-07T09:26:21;6.47;;;3.35;;
43650;SDS011;29247;50.944;5.382;2023-05-07T09:28:48;6.43;;;3.75;;
43650;SDS011;29247;50.944;5.382;2023-05-07T09:31:16;6.90;;;3.95;;
43650;SDS011;29247;50.944;5.382;2023-05-07T09:33:46;5.03;;;3.28;;
43650;SDS011;29247;50.944;5.382;2023-05-07T09:36:11;3.08;;;2.30;;
43650;SDS011;29247;50.944;5.382;2023-05-07T09:38:38;4.10;;;3.00;;
43650;SDS011;29247;50.944;5.382;2023-05-07T09:41:10;5.22;;;3.40;;
43650;SDS011;29247;50.944;5.382;2023-05-07T09:43:39;7.10;;;4.70;;
43650;SDS011;29247;50.944;5.382;2023-05-07T09:46:11;10.05;;;4.60;;
43650;SDS011;29247;50.944;5.382;2023-05-07T09:48:42;6.25;;;3.95;;
43650;SDS011;29247;50.944;5.382;2023-05-07T09:51:29;7.35;;;4.03;;
43650;SDS011;29247;50.944;5.382;2023-05-07T09:54:08;7.80;;;3.78;;
43650;SDS011;29247;50.944;5.382;2023-05-07T09:56:35;6.25;;;3.67;;
43650;SDS011;29247;50.944;5.382;2023-05-07T09:59:03;5.65;;;4.47;;
43650;SDS011;29247;50.944;5.382;2023-05-07T10:01:34;5.40;;;3.75;;
43650;SDS011;29247;50.944;5.382;2023-05-07T10:04:02;6.07;;;3.28;;
43650;SDS011;29247;50.944;5.382;2023-05-07T10:06:37;9.63;;;3.33;;
43650;SDS011;29247;50.944;5.382;2023-05-07T10:09:03;6.57;;;3.30;;
43650;SDS011;29247;50.944;5.382;2023-05-07T10:11:31;8.73;;;3.33;;
43650;SDS011;29247;50.944;5.382;2023-05-07T10:14:01;3.92;;;3.10;;
43650;SDS011;29247;50.944;5.382;2023-05-07T10:16:28;5.15;;;3.38;;
43650;SDS011;29247;50.944;5.382;2023-05-07T10:18:58;4.63;;;3.53;;
43650;SDS011;29247;50.944;5.382;2023-05-07T10:21:24;6.53;;;3.13;;
43650;SDS011;29247;50.944;5.382;2023-05-07T10:24:38;6.53;;;3.22;;
43650;SDS011;29247;50.944;5.382;2023-05-07T10:26:48;6.55;;;3.05;;
43650;SDS011;29247;50.944;5.382;2023-05-07T10:31:55;9.43;;;4.20;;
43650;SDS011;29247;50.944;5.382;2023-05-07T10:34:39;5.93;;;3.05;;
43650;SDS011;29247;50.944;5.382;2023-05-07T10:37:09;6.60;;;3.42;;
43650;SDS011;29247;50.944;5.382;2023-05-07T10:39:35;6.13;;;3.70;;
43650;SDS011;29247;50.944;5.382;2023-05-07T10:42:12;5.43;;;3.47;;
43650;SDS011;29247;50.944;5.382;2023-05-07T10:44:39;9.90;;;3.70;;
43650;SDS011;29247;50.944;5.382;2023-05-07T10:47:08;9.60;;;3.40;;
43650;SDS011;29247;50.944;5.382;2023-05-07T10:49:36;8.07;;;3.00;;
43650;SDS011;29247;50.944;5.382;2023-05-07T10:52:20;8.30;;;4.45;;
43650;SDS011;29247;50.944;5.382;2023-05-07T10:55:40;10.00;;;4.57;;
43650;SDS011;29247;50.944;5.382;2023-05-07T10:57:46;8.25;;;4.68;;
43650;SDS011;29247;50.944;5.382;2023-05-07T11:05:25;9.10;;;4.30;;
43650;SDS011;29247;50.944;5.382;2023-05-07T11:08:04;7.35;;;5.28;;
43650;SDS011;29247;50.944;5.382;2023-05-07T11:13:44;8.13;;;3.75;;
43650;SDS011;29247;50.944;5.382;2023-05-07T11:16:22;8.60;;;4.70;;
43650;SDS011;29247;50.944;5.382;2023-05-07T11:18:55;6.53;;;3.47;;
43650;SDS011;29247;50.944;5.382;2023-05-07T11:21:34;8.85;;;3.88;;
43650;SDS011;29247;50.944;5.382;2023-05-07T11:24:05;8.20;;;4.35;;
43650;SDS011;29247;50.944;5.382;2023-05-07T11:26:45;5.75;;;4.07;;
43650;SDS011;29247;50.944;5.382;2023-05-07T11:29:15;6.40;;;4.70;;
43650;SDS011;29247;50.944;5.382;2023-05-07T11:31:43;7.82;;;4.03;;
43650;SDS011;29247;50.944;5.382;2023-05-07T11:34:13;5.63;;;3.40;;
43650;SDS011;29247;50.944;5.382;2023-05-07T11:36:47;7.35;;;3.88;;
43650;SDS011;29247;50.944;5.382;2023-05-07T11:39:23;4.85;;;3.03;;
43650;SDS011;29247;50.944;5.382;2023-05-07T11:41:56;6.32;;;3.20;;
43650;SDS011;29247;50.944;5.382;2023-05-07T11:44:22;6.47;;;3.17;;
43650;SDS011;29247;50.944;5.382;2023-05-07T11:46:48;10.75;;;3.60;;
43650;SDS011;29247;50.944;5.382;2023-05-07T11:49:14;7.88;;;3.38;;
43650;SDS011;29247;50.944;5.382;2023-05-07T11:51:40;8.93;;;3.40;;
43650;SDS011;29247;50.944;5.382;2023-05-07T11:54:09;4.38;;;2.85;;
43650;SDS011;29247;50.944;5.382;2023-05-07T11:56:36;7.65;;;2.80;;
43650;SDS011;29247;50.944;5.382;2023-05-07T11:59:07;4.90;;;2.88;;
43650;SDS011;29247;50.944;5.382;2023-05-07T12:01:34;6.28;;;3.08;;
43650;SDS011;29247;50.944;5.382;2023-05-07T12:04:02;6.72;;;2.80;;
43650;SDS011;29247;50.944;5.382;2023-05-07T12:06:30;9.50;;;3.17;;
43650;SDS011;29247;50.944;5.382;2023-05-07T12:08:58;5.72;;;2.63;;
43650;SDS011;29247;50.944;5.382;2023-05-07T12:11:24;7.82;;;2.70;;
43650;SDS011;29247;50.944;5.382;2023-05-07T12:13:51;6.13;;;2.67;;
43650;SDS011;29247;50.944;5.382;2023-05-07T12:16:19;8.63;;;2.60;;
43650;SDS011;29247;50.944;5.382;2023-05-07T12:18:48;6.13;;;2.38;;
43650;SDS011;29247;50.944;5.382;2023-05-07T12:21:17;3.17;;;2.30;;
43650;SDS011;29247;50.944;5.382;2023-05-07T12:23:43;5.70;;;2.13;;
43650;SDS011;29247;50.944;5.382;2023-05-07T12:26:10;6.93;;;2.30;;
43650;SDS011;29247;50.944;5.382;2023-05-07T12:28:39;6.13;;;2.40;;
43650;SDS011;29247;50.944;5.382;2023-05-07T12:31:07;4.30;;;2.10;;
43650;SDS011;29247;50.944;5.382;2023-05-07T12:33:34;5.32;;;2.10;;
43650;SDS011;29247;50.944;5.382;2023-05-07T12:36:02;5.55;;;2.60;;
43650;SDS011;29247;50.944;5.382;2023-05-07T12:38:34;5.85;;;2.35;;
43650;SDS011;29247;50.944;5.382;2023-05-07T12:41:01;5.53;;;2.25;;
43650;SDS011;29247;50.944;5.382;2023-05-07T12:43:28;4.95;;;2.50;;
43650;SDS011;29247;50.944;5.382;2023-05-07T12:45:55;5.40;;;2.55;;
43650;SDS011;29247;50.944;5.382;2023-05-07T12:48:22;5.35;;;3.05;;
43650;SDS011;29247;50.944;5.382;2023-05-07T12:50:49;5.13;;;2.30;;
43650;SDS011;29247;50.944;5.382;2023-05-07T12:53:19;4.10;;;2.13;;
43650;SDS011;29247;50.944;5.382;2023-05-07T12:55:51;3.72;;;2.05;;
43650;SDS011;29247;50.944;5.382;2023-05-07T12:58:19;3.60;;;1.95;;
43650;SDS011;29247;50.944;5.382;2023-05-07T13:00:49;3.63;;;2.08;;
43650;SDS011;29247;50.944;5.382;2023-05-07T13:05:57;3.25;;;1.67;;
43650;SDS011;29247;50.944;5.382;2023-05-07T13:08:29;6.75;;;1.35;;
43650;SDS011;29247;50.944;5.382;2023-05-07T13:11:02;5.20;;;1.48;;
43650;SDS011;29247;50.944;5.382;2023-05-07T13:15:59;2.90;;;1.67;;
43650;SDS011;29247;50.944;5.382;2023-05-07T13:18:26;5.28;;;2.25;;
43650;SDS011;29247;50.944;5.382;2023-05-07T13:20:54;3.08;;;1.95;;
43650;SDS011;29247;50.944;5.382;2023-05-07T13:23:22;5.25;;;2.38;;
43650;SDS011;29247;50.944;5.382;2023-05-07T13:25:48;4.32;;;2.85;;
43650;SDS011;29247;50.944;5.382;2023-05-07T13:28:14;2.78;;;1.80;;
43650;SDS011;29247;50.944;5.382;2023-05-07T13:30:41;4.80;;;2.65;;
43650;SDS011;29247;50.944;5.382;2023-05-07T13:33:07;4.78;;;2.45;;
43650;SDS011;29247;50.944;5.382;2023-05-07T13:35:33;3.95;;;2.05;;
43650;SDS011;29247;50.944;5.382;2023-05-07T13:38:03;6.18;;;1.52;;
43650;SDS011;29247;50.944;5.382;2023-05-07T13:40:29;2.83;;;1.70;;
43650;SDS011;29247;50.944;5.382;2023-05-07T13:42:56;3.03;;;1.30;;
43650;SDS011;29247;50.944;5.382;2023-05-07T13:45:23;5.30;;;1.80;;
43650;SDS011;29247;50.944;5.382;2023-05-07T13:47:51;3.03;;;2.03;;
43650;SDS011;29247;50.944;5.382;2023-05-07T13:50:17;5.25;;;2.00;;
43650;SDS011;29247;50.944;5.382;2023-05-07T13:52:43;4.13;;;2.20;;
43650;SDS011;29247;50.944;5.382;2023-05-07T13:55:19;6.45;;;2.00;;
43650;SDS011;29247;50.944;5.382;2023-05-07T14:00:12;5.80;;;3.30;;
43650;SDS011;29247;50.944;5.382;2023-05-07T14:02:39;4.57;;;2.35;;
43650;SDS011;29247;50.944;5.382;2023-05-07T14:05:10;5.88;;;2.03;;
43650;SDS011;29247;50.944;5.382;2023-05-07T14:07:40;5.07;;;2.65;;
43650;SDS011;29247;50.944;5.382;2023-05-07T14:10:06;9.30;;;2.83;;
43650;SDS011;29247;50.944;5.382;2023-05-07T14:12:36;3.30;;;1.77;;
43650;SDS011;29247;50.944;5.382;2023-05-07T14:15:02;5.70;;;1.73;;
43650;SDS011;29247;50.944;5.382;2023-05-07T14:17:28;5.25;;;1.80;;
43650;SDS011;29247;50.944;5.382;2023-05-07T14:19:55;4.82;;;2.13;;
43650;SDS011;29247;50.944;5.382;2023-05-07T14:22:21;5.10;;;2.15;;
43650;SDS011;29247;50.944;5.382;2023-05-07T14:24:47;2.85;;;1.60;;
43650;SDS011;29247;50.944;5.382;2023-05-07T14:27:14;3.63;;;2.42;;
43650;SDS011;29247;50.944;5.382;2023-05-07T14:29:40;3.58;;;1.42;;
43650;SDS011;29247;50.944;5.382;2023-05-07T14:32:06;3.95;;;1.60;;
43650;SDS011;29247;50.944;5.382;2023-05-07T14:34:34;6.38;;;2.47;;
43650;SDS011;29247;50.944;5.382;2023-05-07T14:37:00;4.75;;;1.77;;
43650;SDS011;29247;50.944;5.382;2023-05-07T14:39:29;5.32;;;1.98;;
43650;SDS011;29247;50.944;5.382;2023-05-07T14:41:54;3.90;;;2.00;;
43650;SDS011;29247;50.944;5.382;2023-05-07T14:44:24;4.25;;;1.98;;
43650;SDS011;29247;50.944;5.382;2023-05-07T14:46:52;3.10;;;1.90;;
43650;SDS011;29247;50.944;5.382;2023-05-07T14:49:18;3.78;;;2.10;;
43650;SDS011;29247;50.944;5.382;2023-05-07T14:51:44;3.35;;;1.83;;
43650;SDS011;29247;50.944;5.382;2023-05-07T14:54:13;5.00;;;1.65;;
43650;SDS011;29247;50.944;5.382;2023-05-07T14:56:39;5.53;;;1.70;;
43650;SDS011;29247;50.944;5.382;2023-05-07T14:59:06;3.70;;;1.67;;
43650;SDS011;29247;50.944;5.382;2023-05-07T15:01:33;2.42;;;1.67;;
43650;SDS011;29247;50.944;5.382;2023-05-07T15:04:00;5.88;;;1.73;;
43650;SDS011;29247;50.944;5.382;2023-05-07T15:06:28;3.80;;;1.60;;
43650;SDS011;29247;50.944;5.382;2023-05-07T15:08:54;5.05;;;2.00;;
43650;SDS011;29247;50.944;5.382;2023-05-07T15:11:20;3.30;;;1.48;;
43650;SDS011;29247;50.944;5.382;2023-05-07T15:13:46;3.45;;;1.80;;
43650;SDS011;29247;50.944;5.382;2023-05-07T15:16:12;2.78;;;1.80;;
43650;SDS011;29247;50.944;5.382;2023-05-07T15:18:40;1.75;;;1.65;;